sensor_id;sensor_type;location;lat;lon;timestamp;P1;durP1;ratioP1;P2;durP2;ratioP2
2824;SDS011;1420;51.324;12.344;2023-06-10T00:01:53;15.42;;;7.44;;
2824;SDS011;1420;51.324;12.344;2023-06-10T00:04:20;13.20;;;6.00;;
2824;SDS011;1420;51.324;12.344;2023-06-10T00:06:48;12.12;;;5.86;;
2824;SDS011;1420;51.324;12.344;2023-06-10T00:09:15;13.22;;;9.76;;
2824;SDS011;1420;51.324;12.344;2023-06-10T00:11:42;11.92;;;6.64;;
2824;SDS011;1420;51.324;12.344;2023-06-10T00:14:09;11.78;;;8.62;;
2824;SDS011;1420;51.324;12.344;2023-06-10T00:16:36;13.12;;;11.14;;
2824;SDS011;1420;51.324;12.344;2023-06-10T00:19:04;11.62;;;10.04;;
2824;SDS011;1420;51.324;12.344;2023-06-10T00:21:31;13.62;;;8.88;;
2824;SDS011;1420;51.324;12.344;2023-06-10T00:24:00;14.72;;;12.92;;
2824;SDS011;1420;51.324;12.344;2023-06-10T00:26:27;11.60;;;10.02;;
2824;SDS011;1420;51.324;12.344;2023-06-10T00:28:54;12.12;;;7.10;;
2824;SDS011;1420;51.324;12.344;2023-06-10T00:31:21;11.94;;;10.62;;
2824;SDS011;1420;51.324;12.344;2023-06-10T00:33:48;10.46;;;5.02;;
2824;SDS011;1420;51.324;12.344;2023-06-10T00:36:16;14.06;;;8.86;;
2824;SDS011;1420;51.324;12.344;2023-06-10T00:38:43;13.56;;;7.90;;
2824;SDS011;1420;51.324;12.344;2023-06-10T00:41:10;12.34;;;9.34;;
2824;SDS011;1420;51.324;12.344;2023-06-10T00:43:38;15.48;;;7.52;;
2824;SDS011;1420;51.324;12.344;2023-06-10T00:46:05;16.02;;;10.88;;
2824;SDS011;1420;51.324;12.344;2023-06-10T00:48:33;14.22;;;8.46;;
2824;SDS011;1420;51.324;12.344;2023-06-10T00:51:00;13.74;;;8.04;;
2824;SDS011;1420;51.324;12.344;2023-06-10T00:53:27;12.14;;;10.74;;
2824;SDS011;1420;51.324;12.344;2023-06-10T00:55:54;13.82;;;9.58;;
2824;SDS011;1420;51.324;12.344;2023-06-10T00:58:22;12.46;;;7.34;;
2824;SDS011;1420;51.324;12.344;2023-06-10T01:00:49;12.78;;;10.34;;
2824;SDS011;1420;51.324;12.344;2023-06-10T01:03:17;13.30;;;8.86;;
2824;SDS011;1420;51.324;12.344;2023-06-10T01:05:47;12.36;;;11.10;;
2824;SDS011;1420;51.324;12.344;2023-06-10T01:08:17;13.18;;;8.92;;
2824;SDS011;1420;51.324;12.344;2023-06-10T01:10:43;11.62;;;7.50;;
2824;SDS011;1420;51.324;12.344;2023-06-10T01:13:11;13.12;;;8.92;;
2824;SDS011;1420;51.324;12.344;2023-06-10T01:15:39;13.18;;;10.60;;
2824;SDS011;1420;51.324;12.344;2023-06-10T01:18:07;12.52;;;9.04;;
2824;SDS011;1420;51.324;12.344;2023-06-10T01:20:35;11.66;;;7.30;;
2824;SDS011;1420;51.324;12.344;2023-06-10T01:23:02;13.24;;;8.86;;
2824;SDS011;1420;51.324;12.344;2023-06-10T01:25:29;12.40;;;8.02;;
2824;SDS011;1420;51.324;12.344;2023-06-10T01:28:01;10.98;;;9.18;;
2824;SDS011;1420;51.324;12.344;2023-06-10T01:30:27;13.92;;;8.02;;
2824;SDS011;1420;51.324;12.344;2023-06-10T01:32:55;16.26;;;14.60;;
2824;SDS011;1420;51.324;12.344;2023-06-10T01:35:24;12.68;;;10.32;;
2824;SDS011;1420;51.324;12.344;2023-06-10T01:37:50;15.16;;;8.44;;
2824;SDS011;1420;51.324;12.344;2023-06-10T01:40:17;15.42;;;9.52;;
2824;SDS011;1420;51.324;12.344;2023-06-10T01:42:44;14.50;;;11.08;;
2824;SDS011;1420;51.324;12.344;2023-06-10T01:45:11;15.94;;;10.72;;
2824;SDS011;1420;51.324;12.344;2023-06-10T01:47:38;14.42;;;11.14;;
2824;SDS011;1420;51.324;12.344;2023-06-10T01:50:06;14.06;;;11.14;;
2824;SDS011;1420;51.324;12.344;2023-06-10T01:52:34;14.58;;;12.44;;
2824;SDS011;1420;51.324;12.344;2023-06-10T01:55:01;14.04;;;10.96;;
2824;SDS011;1420;51.324;12.344;2023-06-10T01:57:28;13.30;;;10.40;;
2824;SDS011;1420;51.324;12.344;2023-06-10T01:59:55;15.34;;;12.96;;
2824;SDS011;1420;51.324;12.344;2023-06-10T02:02:22;17.22;;;12.72;;
2824;SDS011;1420;51.324;12.344;2023-06-10T02:04:50;18.10;;;11.58;;
2824;SDS011;1420;51.324;12.344;2023-06-10T02:07:18;14.78;;;12.66;;
2824;SDS011;1420;51.324;12.344;2023-06-10T02:09:45;13.94;;;10.54;;
2824;SDS011;1420;51.324;12.344;2023-06-10T02:12:13;15.48;;;12.20;;
2824;SDS011;1420;51.324;12.344;2023-06-10T02:14:41;14.30;;;8.52;;
2824;SDS011;1420;51.324;12.344;2023-06-10T02:17:09;16.70;;;10.76;;
2824;SDS011;1420;51.324;12.344;2023-06-10T02:19:37;17.04;;;9.68;;
2824;SDS011;1420;51.324;12.344;2023-06-10T02:22:04;15.08;;;12.22;;
2824;SDS011;1420;51.324;12.344;2023-06-10T02:24:31;14.72;;;10.62;;
2824;SDS011;1420;51.324;12.344;2023-06-10T02:26:58;14.72;;;9.70;;
2824;SDS011;1420;51.324;12.344;2023-06-10T02:29:27;19.34;;;10.72;;
2824;SDS011;1420;51.324;12.344;2023-06-10T02:31:55;17.84;;;10.82;;
2824;SDS011;1420;51.324;12.344;2023-06-10T02:34:23;15.02;;;9.56;;
2824;SDS011;1420;51.324;12.344;2023-06-10T02:36:51;18.26;;;13.24;;
2824;SDS011;1420;51.324;12.344;2023-06-10T02:39:19;14.96;;;13.42;;
2824;SDS011;1420;51.324;12.344;2023-06-10T02:41:47;17.08;;;9.30;;
2824;SDS011;1420;51.324;12.344;2023-06-10T02:44:15;13.44;;;10.00;;
2824;SDS011;1420;51.324;12.344;2023-06-10T02:46:43;12.88;;;10.92;;
2824;SDS011;1420;51.324;12.344;2023-06-10T02:49:11;12.80;;;8.42;;
2824;SDS011;1420;51.324;12.344;2023-06-10T02:51:37;13.92;;;12.34;;
2824;SDS011;1420;51.324;12.344;2023-06-10T02:54:04;12.16;;;9.82;;
2824;SDS011;1420;51.324;12.344;2023-06-10T02:56:32;14.94;;;12.56;;
2824;SDS011;1420;51.324;12.344;2023-06-10T02:58:59;12.90;;;10.32;;
2824;SDS011;1420;51.324;12.344;2023-06-10T03:01:26;15.64;;;11.44;;
2824;SDS011;1420;51.324;12.344;2023-06-10T03:03:53;12.28;;;8.72;;
2824;SDS011;1420;51.324;12.344;2023-06-10T03:06:20;12.64;;;8.90;;
2824;SDS011;1420;51.324;12.344;2023-06-10T03:08:48;13.82;;;9.04;;
2824;SDS011;1420;51.324;12.344;2023-06-10T03:11:16;13.32;;;9.20;;
2824;SDS011;1420;51.324;12.344;2023-06-10T03:13:43;11.54;;;6.80;;
2824;SDS011;1420;51.324;12.344;2023-06-10T03:16:10;14.02;;;10.12;;
2824;SDS011;1420;51.324;12.344;2023-06-10T03:18:38;11.00;;;9.20;;
2824;SDS011;1420;51.324;12.344;2023-06-10T03:21:06;14.64;;;8.58;;
2824;SDS011;1420;51.324;12.344;2023-06-10T03:23:34;15.84;;;8.94;;
2824;SDS011;1420;51.324;12.344;2023-06-10T03:26:02;10.88;;;7.50;;
2824;SDS011;1420;51.324;12.344;2023-06-10T03:28:30;14.56;;;12.88;;
2824;SDS011;1420;51.324;12.344;2023-06-10T03:30:58;14.80;;;8.78;;
2824;SDS011;1420;51.324;12.344;2023-06-10T03:33:26;13.74;;;12.30;;
2824;SDS011;1420;51.324;12.344;2023-06-10T03:35:54;11.34;;;7.92;;
2824;SDS011;1420;51.324;12.344;2023-06-10T03:38:22;10.92;;;8.08;;
2824;SDS011;1420;51.324;12.344;2023-06-10T03:40:50;18.26;;;8.56;;
2824;SDS011;1420;51.324;12.344;2023-06-10T03:43:17;12.24;;;7.62;;
2824;SDS011;1420;51.324;12.344;2023-06-10T03:45:44;12.86;;;9.40;;
2824;SDS011;1420;51.324;12.344;2023-06-10T03:48:11;12.80;;;8.24;;
2824;SDS011;1420;51.324;12.344;2023-06-10T03:50:39;14.04;;;9.26;;
2824;SDS011;1420;51.324;12.344;2023-06-10T03:53:07;11.44;;;8.72;;
2824;SDS011;1420;51.324;12.344;2023-06-10T03:55:35;13.24;;;11.02;;
2824;SDS011;1420;51.324;12.344;2023-06-10T03:58:03;14.42;;;8.38;;
2824;SDS011;1420;51.324;12.344;2023-06-10T04:00:31;12.44;;;8.16;;
2824;SDS011;1420;51.324;12.344;2023-06-10T04:02:58;14.56;;;9.84;;
2824;SDS011;1420;51.324;12.344;2023-06-10T04:05:26;13.46;;;9.30;;
2824;SDS011;1420;51.324;12.344;2023-06-10T04:07:54;12.50;;;7.84;;
2824;SDS011;1420;51.324;12.344;2023-06-10T04:10:21;11.50;;;8.88;;
2824;SDS011;1420;51.324;12.344;2023-06-10T04:12:51;12.24;;;7.98;;
2824;SDS011;1420;51.324;12.344;2023-06-10T04:15:19;12.52;;;9.48;;
2824;SDS011;1420;51.324;12.344;2023-06-10T04:17:47;16.84;;;11.14;;
2824;SDS011;1420;51.324;12.344;2023-06-10T04:20:14;15.46;;;9.12;;
2824;SDS011;1420;51.324;12.344;2023-06-10T04:22:41;11.66;;;8.86;;
2824;SDS011;1420;51.324;12.344;2023-06-10T04:25:09;12.16;;;10.92;;
2824;SDS011;1420;51.324;12.344;2023-06-10T04:27:35;12.98;;;11.54;;
2824;SDS011;1420;51.324;12.344;2023-06-10T04:30:04;12.00;;;10.78;;
2824;SDS011;1420;51.324;12.344;2023-06-10T04:32:32;12.34;;;9.22;;
2824;SDS011;1420;51.324;12.344;2023-06-10T04:34:59;14.70;;;10.76;;
2824;SDS011;1420;51.324;12.344;2023-06-10T04:37:26;15.50;;;11.24;;
2824;SDS011;1420;51.324;12.344;2023-06-10T04:39:53;10.82;;;8.22;;
2824;SDS011;1420;51.324;12.344;2023-06-10T04:42:20;17.58;;;9.92;;
2824;SDS011;1420;51.324;12.344;2023-06-10T04:44:48;13.38;;;10.32;;
2824;SDS011;1420;51.324;12.344;2023-06-10T04:47:15;13.96;;;10.76;;
2824;SDS011;1420;51.324;12.344;2023-06-10T04:49:42;15.24;;;10.06;;
2824;SDS011;1420;51.324;12.344;2023-06-10T04:52:10;11.26;;;7.62;;
2824;SDS011;1420;51.324;12.344;2023-06-10T04:54:38;17.20;;;9.12;;
2824;SDS011;1420;51.324;12.344;2023-06-10T04:57:06;13.84;;;10.76;;
2824;SDS011;1420;51.324;12.344;2023-06-10T04:59:34;16.18;;;8.52;;
2824;SDS011;1420;51.324;12.344;2023-06-10T05:02:02;14.14;;;12.54;;
2824;SDS011;1420;51.324;12.344;2023-06-10T05:04:30;15.28;;;9.82;;
2824;SDS011;1420;51.324;12.344;2023-06-10T05:06:58;13.80;;;9.34;;
2824;SDS011;1420;51.324;12.344;2023-06-10T05:09:26;11.16;;;9.34;;
2824;SDS011;1420;51.324;12.344;2023-06-10T05:11:54;13.78;;;10.12;;
2824;SDS011;1420;51.324;12.344;2023-06-10T05:14:22;17.70;;;12.32;;
2824;SDS011;1420;51.324;12.344;2023-06-10T05:16:50;13.08;;;8.96;;
2824;SDS011;1420;51.324;12.344;2023-06-10T05:19:18;11.92;;;9.84;;
2824;SDS011;1420;51.324;12.344;2023-06-10T05:21:46;16.54;;;13.10;;
2824;SDS011;1420;51.324;12.344;2023-06-10T05:24:14;12.08;;;8.90;;
2824;SDS011;1420;51.324;12.344;2023-06-10T05:26:42;14.24;;;10.10;;
2824;SDS011;1420;51.324;12.344;2023-06-10T05:29:10;15.36;;;10.58;;
2824;SDS011;1420;51.324;12.344;2023-06-10T05:31:38;11.62;;;9.00;;
2824;SDS011;1420;51.324;12.344;2023-06-10T05:34:05;11.22;;;9.76;;
2824;SDS011;1420;51.324;12.344;2023-06-10T05:36:32;12.88;;;10.50;;
2824;SDS011;1420;51.324;12.344;2023-06-10T05:39:00;12.90;;;11.12;;
2824;SDS011;1420;51.324;12.344;2023-06-10T05:41:27;14.78;;;11.28;;
2824;SDS011;1420;51.324;12.344;2023-06-10T05:43:54;16.76;;;13.46;;
2824;SDS011;1420;51.324;12.344;2023-06-10T05:46:23;15.40;;;10.12;;
2824;SDS011;1420;51.324;12.344;2023-06-10T05:48:51;17.80;;;11.72;;
2824;SDS011;1420;51.324;12.344;2023-06-10T05:51:19;14.40;;;10.86;;
2824;SDS011;1420;51.324;12.344;2023-06-10T05:53:46;13.70;;;9.52;;
2824;SDS011;1420;51.324;12.344;2023-06-10T05:56:14;12.94;;;10.08;;
2824;SDS011;1420;51.324;12.344;2023-06-10T05:58:40;15.62;;;11.14;;
2824;SDS011;1420;51.324;12.344;2023-06-10T06:01:08;15.40;;;9.50;;
2824;SDS011;1420;51.324;12.344;2023-06-10T06:03:35;14.78;;;8.54;;
2824;SDS011;1420;51.324;12.344;2023-06-10T06:06:02;14.24;;;9.10;;
2824;SDS011;1420;51.324;12.344;2023-06-10T06:08:29;12.44;;;8.60;;
2824;SDS011;1420;51.324;12.344;2023-06-10T06:10:56;15.40;;;10.50;;
2824;SDS011;1420;51.324;12.344;2023-06-10T06:13:24;16.24;;;10.06;;
2824;SDS011;1420;51.324;12.344;2023-06-10T06:15:51;15.24;;;12.02;;
2824;SDS011;1420;51.324;12.344;2023-06-10T06:18:18;15.90;;;13.84;;
2824;SDS011;1420;51.324;12.344;2023-06-10T06:20:45;17.70;;;13.74;;
2824;SDS011;1420;51.324;12.344;2023-06-10T06:23:13;16.76;;;13.74;;
2824;SDS011;1420;51.324;12.344;2023-06-10T06:25:40;15.70;;;10.72;;
2824;SDS011;1420;51.324;12.344;2023-06-10T06:28:09;16.30;;;11.34;;
2824;SDS011;1420;51.324;12.344;2023-06-10T06:30:35;17.66;;;15.62;;
2824;SDS011;1420;51.324;12.344;2023-06-10T06:33:02;20.86;;;18.86;;
2824;SDS011;1420;51.324;12.344;2023-06-10T06:35:31;20.34;;;14.10;;
2824;SDS011;1420;51.324;12.344;2023-06-10T06:37:57;16.14;;;13.12;;
2824;SDS011;1420;51.324;12.344;2023-06-10T06:40:25;15.62;;;12.60;;
2824;SDS011;1420;51.324;12.344;2023-06-10T06:42:52;19.10;;;17.08;;
2824;SDS011;1420;51.324;12.344;2023-06-10T06:45:19;18.86;;;14.84;;
2824;SDS011;1420;51.324;12.344;2023-06-10T06:47:47;24.30;;;21.90;;
2824;SDS011;1420;51.324;12.344;2023-06-10T06:50:15;23.86;;;21.50;;
2824;SDS011;1420;51.324;12.344;2023-06-10T06:52:42;24.18;;;22.08;;
2824;SDS011;1420;51.324;12.344;2023-06-10T06:55:09;18.52;;;16.62;;
2824;SDS011;1420;51.324;12.344;2023-06-10T06:57:37;21.26;;;16.30;;
2824;SDS011;1420;51.324;12.344;2023-06-10T07:00:05;19.26;;;17.26;;
2824;SDS011;1420;51.324;12.344;2023-06-10T07:02:32;23.30;;;21.00;;
2824;SDS011;1420;51.324;12.344;2023-06-10T07:05:00;23.10;;;20.72;;
2824;SDS011;1420;51.324;12.344;2023-06-10T07:07:27;20.76;;;18.56;;
2824;SDS011;1420;51.324;12.344;2023-06-10T07:09:54;24.36;;;22.06;;
2824;SDS011;1420;51.324;12.344;2023-06-10T07:12:21;27.00;;;24.50;;
2824;SDS011;1420;51.324;12.344;2023-06-10T07:14:49;29.86;;;27.18;;
2824;SDS011;1420;51.324;12.344;2023-06-10T07:17:16;22.78;;;20.68;;
2824;SDS011;1420;51.324;12.344;2023-06-10T07:19:43;26.74;;;24.46;;
2824;SDS011;1420;51.324;12.344;2023-06-10T07:22:10;22.38;;;20.28;;
2824;SDS011;1420;51.324;12.344;2023-06-10T07:24:37;25.46;;;23.16;;
2824;SDS011;1420;51.324;12.344;2023-06-10T07:27:05;29.44;;;27.00;;
2824;SDS011;1420;51.324;12.344;2023-06-10T07:29:32;31.86;;;29.56;;
2824;SDS011;1420;51.324;12.344;2023-06-10T07:31:59;48.04;;;44.96;;
2824;SDS011;1420;51.324;12.344;2023-06-10T07:34:26;37.26;;;34.64;;
2824;SDS011;1420;51.324;12.344;2023-06-10T07:36:54;25.50;;;23.16;;
2824;SDS011;1420;51.324;12.344;2023-06-10T07:39:22;39.26;;;36.42;;
2824;SDS011;1420;51.324;12.344;2023-06-10T07:41:50;36.36;;;33.66;;
2824;SDS011;1420;51.324;12.344;2023-06-10T07:44:18;41.20;;;38.44;;
2824;SDS011;1420;51.324;12.344;2023-06-10T07:46:45;39.46;;;36.62;;
2824;SDS011;1420;51.324;12.344;2023-06-10T07:49:12;39.36;;;36.50;;
2824;SDS011;1420;51.324;12.344;2023-06-10T07:51:39;33.52;;;31.02;;
2824;SDS011;1420;51.324;12.344;2023-06-10T07:54:06;34.96;;;32.16;;
2824;SDS011;1420;51.324;12.344;2023-06-10T07:56:34;43.26;;;40.58;;
2824;SDS011;1420;51.324;12.344;2023-06-10T07:59:02;41.54;;;38.70;;
2824;SDS011;1420;51.324;12.344;2023-06-10T08:01:30;38.90;;;36.26;;
2824;SDS011;1420;51.324;12.344;2023-06-10T08:03:58;37.04;;;34.04;;
2824;SDS011;1420;51.324;12.344;2023-06-10T08:06:26;24.04;;;21.84;;
2824;SDS011;1420;51.324;12.344;2023-06-10T08:08:54;34.14;;;31.56;;
2824;SDS011;1420;51.324;12.344;2023-06-10T08:11:21;33.88;;;31.28;;
2824;SDS011;1420;51.324;12.344;2023-06-10T08:13:48;40.10;;;37.32;;
2824;SDS011;1420;51.324;12.344;2023-06-10T08:16:16;39.44;;;36.66;;
2824;SDS011;1420;51.324;12.344;2023-06-10T08:18:42;34.80;;;32.20;;
2824;SDS011;1420;51.324;12.344;2023-06-10T08:21:10;48.46;;;45.42;;
2824;SDS011;1420;51.324;12.344;2023-06-10T08:23:38;42.84;;;39.94;;
2824;SDS011;1420;51.324;12.344;2023-06-10T08:26:05;38.34;;;35.66;;
2824;SDS011;1420;51.324;12.344;2023-06-10T08:28:33;39.50;;;36.82;;
2824;SDS011;1420;51.324;12.344;2023-06-10T08:31:01;30.28;;;27.98;;
2824;SDS011;1420;51.324;12.344;2023-06-10T08:33:28;30.24;;;27.96;;
2824;SDS011;1420;51.324;12.344;2023-06-10T08:35:55;31.82;;;29.28;;
2824;SDS011;1420;51.324;12.344;2023-06-10T08:38:23;30.30;;;28.02;;
2824;SDS011;1420;51.324;12.344;2023-06-10T08:40:53;30.72;;;28.28;;
2824;SDS011;1420;51.324;12.344;2023-06-10T08:43:22;32.62;;;30.14;;
2824;SDS011;1420;51.324;12.344;2023-06-10T08:45:49;33.54;;;31.04;;
2824;SDS011;1420;51.324;12.344;2023-06-10T08:48:17;31.42;;;29.04;;
2824;SDS011;1420;51.324;12.344;2023-06-10T08:50:44;32.68;;;30.00;;
2824;SDS011;1420;51.324;12.344;2023-06-10T08:53:12;32.66;;;30.20;;
2824;SDS011;1420;51.324;12.344;2023-06-10T08:55:41;28.78;;;26.38;;
2824;SDS011;1420;51.324;12.344;2023-06-10T08:58:06;28.04;;;25.84;;
2824;SDS011;1420;51.324;12.344;2023-06-10T09:00:33;29.98;;;27.60;;
2824;SDS011;1420;51.324;12.344;2023-06-10T09:03:00;27.42;;;25.16;;
2824;SDS011;1420;51.324;12.344;2023-06-10T09:05:28;25.70;;;23.60;;
2824;SDS011;1420;51.324;12.344;2023-06-10T09:07:57;28.78;;;26.56;;
2824;SDS011;1420;51.324;12.344;2023-06-10T09:10:23;31.24;;;28.92;;
2824;SDS011;1420;51.324;12.344;2023-06-10T09:12:50;26.50;;;24.30;;
2824;SDS011;1420;51.324;12.344;2023-06-10T09:15:17;27.58;;;25.06;;
2824;SDS011;1420;51.324;12.344;2023-06-10T09:17:44;28.08;;;25.88;;
2824;SDS011;1420;51.324;12.344;2023-06-10T09:20:12;26.36;;;23.74;;
2824;SDS011;1420;51.324;12.344;2023-06-10T09:22:41;29.40;;;27.02;;
2824;SDS011;1420;51.324;12.344;2023-06-10T09:25:08;28.86;;;26.36;;
2824;SDS011;1420;51.324;12.344;2023-06-10T09:27:51;24.44;;;22.24;;
2824;SDS011;1420;51.324;12.344;2023-06-10T09:30:24;23.00;;;20.88;;
2824;SDS011;1420;51.324;12.344;2023-06-10T09:32:54;32.72;;;30.52;;
2824;SDS011;1420;51.324;12.344;2023-06-10T09:35:21;28.34;;;26.16;;
2824;SDS011;1420;51.324;12.344;2023-06-10T09:37:52;28.78;;;26.64;;
2824;SDS011;1420;51.324;12.344;2023-06-10T09:40:19;33.40;;;30.84;;
2824;SDS011;1420;51.324;12.344;2023-06-10T09:42:46;26.38;;;24.14;;
2824;SDS011;1420;51.324;12.344;2023-06-10T09:45:14;17.10;;;15.24;;
2824;SDS011;1420;51.324;12.344;2023-06-10T09:47:41;25.44;;;23.48;;
2824;SDS011;1420;51.324;12.344;2023-06-10T09:50:08;14.94;;;13.20;;
2824;SDS011;1420;51.324;12.344;2023-06-10T09:52:36;19.42;;;17.38;;
2824;SDS011;1420;51.324;12.344;2023-06-10T09:55:03;17.92;;;16.18;;
2824;SDS011;1420;51.324;12.344;2023-06-10T09:57:31;20.86;;;18.88;;
2824;SDS011;1420;51.324;12.344;2023-06-10T10:00:02;21.72;;;19.76;;
2824;SDS011;1420;51.324;12.344;2023-06-10T10:02:27;20.64;;;18.66;;
2824;SDS011;1420;51.324;12.344;2023-06-10T10:05:01;15.00;;;12.74;;
2824;SDS011;1420;51.324;12.344;2023-06-10T10:07:30;15.10;;;12.14;;
2824;SDS011;1420;51.324;12.344;2023-06-10T10:09:57;16.60;;;14.64;;
2824;SDS011;1420;51.324;12.344;2023-06-10T10:12:25;19.26;;;17.48;;
2824;SDS011;1420;51.324;12.344;2023-06-10T10:14:53;15.78;;;13.88;;
2824;SDS011;1420;51.324;12.344;2023-06-10T10:17:21;16.28;;;12.34;;
2824;SDS011;1420;51.324;12.344;2023-06-10T10:19:54;15.24;;;13.36;;
2824;SDS011;1420;51.324;12.344;2023-06-10T10:22:20;16.12;;;14.42;;
2824;SDS011;1420;51.324;12.344;2023-06-10T10:24:48;15.80;;;13.74;;
2824;SDS011;1420;51.324;12.344;2023-06-10T10:27:15;21.14;;;19.04;;
2824;SDS011;1420;51.324;12.344;2023-06-10T10:29:41;21.08;;;19.08;;
2824;SDS011;1420;51.324;12.344;2023-06-10T10:32:09;21.74;;;19.74;;
2824;SDS011;1420;51.324;12.344;2023-06-10T10:34:40;16.68;;;14.00;;
2824;SDS011;1420;51.324;12.344;2023-06-10T10:37:19;23.82;;;21.78;;
2824;SDS011;1420;51.324;12.344;2023-06-10T10:39:47;18.52;;;16.62;;
2824;SDS011;1420;51.324;12.344;2023-06-10T10:42:15;20.10;;;17.94;;
2824;SDS011;1420;51.324;12.344;2023-06-10T10:44:42;18.76;;;16.96;;
2824;SDS011;1420;51.324;12.344;2023-06-10T10:47:09;13.36;;;11.18;;
2824;SDS011;1420;51.324;12.344;2023-06-10T10:49:37;15.96;;;14.14;;
2824;SDS011;1420;51.324;12.344;2023-06-10T10:52:04;44.28;;;41.48;;
2824;SDS011;1420;51.324;12.344;2023-06-10T10:54:33;19.00;;;17.10;;
2824;SDS011;1420;51.324;12.344;2023-06-10T10:57:14;16.24;;;14.54;;
2824;SDS011;1420;51.324;12.344;2023-06-10T10:59:58;19.78;;;18.00;;
2824;SDS011;1420;51.324;12.344;2023-06-10T11:02:32;18.94;;;17.16;;
2824;SDS011;1420;51.324;12.344;2023-06-10T11:05:02;17.92;;;16.22;;
2824;SDS011;1420;51.324;12.344;2023-06-10T11:07:32;15.46;;;13.48;;
2824;SDS011;1420;51.324;12.344;2023-06-10T11:10:05;16.76;;;15.06;;
2824;SDS011;1420;51.324;12.344;2023-06-10T11:12:41;14.84;;;13.16;;
2824;SDS011;1420;51.324;12.344;2023-06-10T11:15:18;16.04;;;14.34;;
2824;SDS011;1420;51.324;12.344;2023-06-10T11:23:03;14.36;;;11.88;;
2824;SDS011;1420;51.324;12.344;2023-06-10T11:28:17;16.32;;;11.86;;
2824;SDS011;1420;51.324;12.344;2023-06-10T11:30:34;15.04;;;11.94;;
2824;SDS011;1420;51.324;12.344;2023-06-10T11:32:59;17.30;;;13.22;;
2824;SDS011;1420;51.324;12.344;2023-06-10T11:35:26;16.92;;;13.16;;
2824;SDS011;1420;51.324;12.344;2023-06-10T11:37:54;31.94;;;29.12;;
2824;SDS011;1420;51.324;12.344;2023-06-10T11:40:22;17.16;;;14.36;;
2824;SDS011;1420;51.324;12.344;2023-06-10T11:42:49;20.14;;;17.34;;
2824;SDS011;1420;51.324;12.344;2023-06-10T11:45:16;16.88;;;13.26;;
2824;SDS011;1420;51.324;12.344;2023-06-10T11:47:59;79.08;;;73.34;;
2824;SDS011;1420;51.324;12.344;2023-06-10T11:50:29;18.76;;;14.84;;
2824;SDS011;1420;51.324;12.344;2023-06-10T11:52:55;17.30;;;14.34;;
2824;SDS011;1420;51.324;12.344;2023-06-10T11:55:23;17.32;;;14.52;;
2824;SDS011;1420;51.324;12.344;2023-06-10T11:57:50;19.76;;;17.96;;
2824;SDS011;1420;51.324;12.344;2023-06-10T12:00:18;20.52;;;18.40;;
2824;SDS011;1420;51.324;12.344;2023-06-10T12:02:45;25.10;;;22.66;;
2824;SDS011;1420;51.324;12.344;2023-06-10T12:05:14;24.38;;;21.98;;
2824;SDS011;1420;51.324;12.344;2023-06-10T12:07:40;20.12;;;18.12;;
2824;SDS011;1420;51.324;12.344;2023-06-10T12:10:08;19.40;;;16.34;;
2824;SDS011;1420;51.324;12.344;2023-06-10T12:12:35;18.32;;;15.84;;
2824;SDS011;1420;51.324;12.344;2023-06-10T12:15:02;19.54;;;17.58;;
2824;SDS011;1420;51.324;12.344;2023-06-10T12:17:37;18.46;;;14.00;;
2824;SDS011;1420;51.324;12.344;2023-06-10T12:20:05;18.88;;;17.04;;
2824;SDS011;1420;51.324;12.344;2023-06-10T12:22:38;15.58;;;12.72;;
2824;SDS011;1420;51.324;12.344;2023-06-10T12:25:05;17.70;;;12.00;;
2824;SDS011;1420;51.324;12.344;2023-06-10T12:27:33;16.96;;;13.82;;
2824;SDS011;1420;51.324;12.344;2023-06-10T12:30:01;20.28;;;18.22;;
2824;SDS011;1420;51.324;12.344;2023-06-10T12:35:04;18.88;;;15.22;;
2824;SDS011;1420;51.324;12.344;2023-06-10T12:37:31;22.44;;;17.38;;
2824;SDS011;1420;51.324;12.344;2023-06-10T12:40:01;17.52;;;15.18;;
2824;SDS011;1420;51.324;12.344;2023-06-10T12:42:27;16.88;;;14.66;;
2824;SDS011;1420;51.324;12.344;2023-06-10T12:44:55;18.94;;;16.90;;
2824;SDS011;1420;51.324;12.344;2023-06-10T12:47:28;17.60;;;12.90;;
2824;SDS011;1420;51.324;12.344;2023-06-10T12:49:50;17.90;;;14.36;;
2824;SDS011;1420;51.324;12.344;2023-06-10T12:52:18;17.80;;;12.36;;
2824;SDS011;1420;51.324;12.344;2023-06-10T12:54:46;17.84;;;14.04;;
2824;SDS011;1420;51.324;12.344;2023-06-10T12:57:14;16.24;;;13.66;;
2824;SDS011;1420;51.324;12.344;2023-06-10T12:59:41;18.20;;;15.44;;
2824;SDS011;1420;51.324;12.344;2023-06-10T13:02:08;18.92;;;13.38;;
2824;SDS011;1420;51.324;12.344;2023-06-10T13:04:35;16.02;;;10.30;;
2824;SDS011;1420;51.324;12.344;2023-06-10T13:07:02;60.32;;;54.12;;
2824;SDS011;1420;51.324;12.344;2023-06-10T13:09:30;18.52;;;12.40;;
2824;SDS011;1420;51.324;12.344;2023-06-10T13:11:57;15.32;;;11.98;;
2824;SDS011;1420;51.324;12.344;2023-06-10T13:14:24;18.14;;;16.28;;
2824;SDS011;1420;51.324;12.344;2023-06-10T13:16:52;17.66;;;15.28;;
2824;SDS011;1420;51.324;12.344;2023-06-10T13:19:20;20.20;;;13.98;;
2824;SDS011;1420;51.324;12.344;2023-06-10T13:21:48;17.30;;;14.66;;
2824;SDS011;1420;51.324;12.344;2023-06-10T13:24:15;18.24;;;16.30;;
2824;SDS011;1420;51.324;12.344;2023-06-10T13:26:43;25.00;;;22.48;;
2824;SDS011;1420;51.324;12.344;2023-06-10T13:29:10;17.54;;;15.62;;
2824;SDS011;1420;51.324;12.344;2023-06-10T13:31:38;18.00;;;13.78;;
2824;SDS011;1420;51.324;12.344;2023-06-10T13:34:05;15.36;;;13.40;;
2824;SDS011;1420;51.324;12.344;2023-06-10T13:36:33;15.66;;;13.16;;
2824;SDS011;1420;51.324;12.344;2023-06-10T13:39:00;16.48;;;12.78;;
2824;SDS011;1420;51.324;12.344;2023-06-10T13:41:27;60.26;;;51.02;;
2824;SDS011;1420;51.324;12.344;2023-06-10T13:43:54;14.88;;;11.86;;
2824;SDS011;1420;51.324;12.344;2023-06-10T13:46:21;14.70;;;9.72;;
2824;SDS011;1420;51.324;12.344;2023-06-10T13:48:49;16.40;;;10.90;;
2824;SDS011;1420;51.324;12.344;2023-06-10T13:51:17;15.68;;;11.80;;
2824;SDS011;1420;51.324;12.344;2023-06-10T13:53:45;15.76;;;10.56;;
2824;SDS011;1420;51.324;12.344;2023-06-10T13:56:13;13.82;;;10.02;;
2824;SDS011;1420;51.324;12.344;2023-06-10T13:58:41;14.32;;;9.80;;
2824;SDS011;1420;51.324;12.344;2023-06-10T14:01:08;14.58;;;9.94;;
2824;SDS011;1420;51.324;12.344;2023-06-10T14:03:35;13.68;;;10.00;;
2824;SDS011;1420;51.324;12.344;2023-06-10T14:06:02;13.96;;;8.66;;
2824;SDS011;1420;51.324;12.344;2023-06-10T14:08:29;13.32;;;8.60;;
2824;SDS011;1420;51.324;12.344;2023-06-10T14:10:57;16.56;;;9.04;;
2824;SDS011;1420;51.324;12.344;2023-06-10T14:13:24;12.78;;;7.28;;
2824;SDS011;1420;51.324;12.344;2023-06-10T14:15:51;12.90;;;7.98;;
2824;SDS011;1420;51.324;12.344;2023-06-10T14:18:18;13.50;;;10.08;;
2824;SDS011;1420;51.324;12.344;2023-06-10T14:20:45;12.70;;;6.50;;
2824;SDS011;1420;51.324;12.344;2023-06-10T14:23:13;12.50;;;6.74;;
2824;SDS011;1420;51.324;12.344;2023-06-10T14:25:41;12.50;;;6.48;;
2824;SDS011;1420;51.324;12.344;2023-06-10T14:28:09;11.26;;;4.94;;
2824;SDS011;1420;51.324;12.344;2023-06-10T14:30:37;17.66;;;6.08;;
2824;SDS011;1420;51.324;12.344;2023-06-10T14:33:05;12.66;;;4.86;;
2824;SDS011;1420;51.324;12.344;2023-06-10T14:35:33;12.66;;;5.48;;
2824;SDS011;1420;51.324;12.344;2023-06-10T14:38:00;11.98;;;4.64;;
2824;SDS011;1420;51.324;12.344;2023-06-10T14:40:28;11.80;;;4.96;;
2824;SDS011;1420;51.324;12.344;2023-06-10T14:42:55;12.92;;;4.98;;
2824;SDS011;1420;51.324;12.344;2023-06-10T14:45:22;12.04;;;4.98;;
2824;SDS011;1420;51.324;12.344;2023-06-10T14:47:50;12.62;;;4.80;;
2824;SDS011;1420;51.324;12.344;2023-06-10T14:50:18;11.80;;;4.48;;
2824;SDS011;1420;51.324;12.344;2023-06-10T14:52:46;14.22;;;4.92;;